createdAt,value
2022-09-25T00:00:44.671Z,101440.00
2022-09-25T00:02:46.200Z,101437.44
2022-09-25T00:04:47.639Z,101436.59
2022-09-25T00:06:49.311Z,101439.25
2022-09-25T00:08:51.395Z,101440.97
2022-09-25T00:10:52.815Z,101441.88
2022-09-25T00:12:54.270Z,101437.47
2022-09-25T00:14:56.113Z,101441.03
2022-09-25T00:16:57.578Z,101446.31
2022-09-25T00:19:18.631Z,101444.50
2022-09-25T00:21:20.118Z,101444.56
2022-09-25T00:23:21.545Z,101440.16
2022-09-25T00:25:23.005Z,101443.75
2022-09-25T00:27:24.448Z,101441.13
2022-09-25T00:29:25.907Z,101448.19
2022-09-25T00:31:27.934Z,101438.44
2022-09-25T00:33:29.418Z,101440.22
2022-09-25T00:35:30.853Z,101442.84
2022-09-25T00:37:36.619Z,101440.22
2022-09-25T00:39:38.097Z,101435.81
2022-09-25T00:41:39.622Z,101438.44
2022-09-25T00:43:45.439Z,101439.31
2022-09-25T00:45:46.986Z,101434.06
2022-09-25T00:48:01.731Z,101442.00
2022-09-25T00:50:12.874Z,101441.97
2022-09-25T00:52:14.479Z,101437.59
2022-09-25T00:54:31.510Z,101442.88
2022-09-25T00:56:41.370Z,101445.50
2022-09-25T00:58:43.053Z,101442.81
2022-09-25T01:00:45.664Z,101440.16
2022-09-25T01:02:55.446Z,101443.72
2022-09-25T01:05:01.744Z,101439.31
2022-09-25T01:07:03.450Z,101442.00
2022-09-25T01:09:05.552Z,101441.09
2022-09-25T01:11:07.104Z,101441.97
2022-09-25T01:13:09.934Z,101443.72
2022-09-25T01:15:14.887Z,101445.44
2022-09-25T01:17:45.579Z,101444.63
2022-09-25T01:20:11.761Z,101442.88
2022-09-25T01:22:50.811Z,101441.97
2022-09-25T01:25:28.503Z,101433.16
2022-09-25T01:28:16.396Z,101430.50
2022-09-25T01:30:19.966Z,101438.50
2022-09-25T01:32:41.850Z,101439.31
2022-09-25T01:35:09.482Z,101440.22
2022-09-25T01:37:19.573Z,101441.13
2022-09-25T01:39:27.199Z,101436.72
2022-09-25T01:41:45.098Z,101442.88
2022-09-25T01:43:57.072Z,101444.66
2022-09-25T01:46:08.597Z,101438.53
2022-09-25T01:48:13.747Z,101438.50
2022-09-25T01:50:22.780Z,101440.22
2022-09-25T01:52:32.928Z,101442.84
2022-09-25T01:54:41.667Z,101442.81
2022-09-25T01:56:48.204Z,101442.91
2022-09-25T01:59:18.334Z,101442.84
2022-09-25T02:01:26.752Z,101441.03
2022-09-25T02:03:36.130Z,101446.28
2022-09-25T02:05:50.693Z,101443.59
2022-09-25T02:07:59.514Z,101442.69
2022-09-25T02:10:08.396Z,101445.28
2022-09-25T02:12:34.484Z,101447.94
2022-09-25T02:14:43.540Z,101452.31
2022-09-25T02:16:48.158Z,101448.81
2022-09-25T02:19:08.474Z,101441.81
2022-09-25T02:21:24.886Z,101450.66
2022-09-25T02:23:45.021Z,101441.03
2022-09-25T02:25:52.610Z,101438.41
2022-09-25T02:27:54.264Z,101440.16
2022-09-25T02:29:58.252Z,101439.25
2022-09-25T02:32:04.881Z,101437.47
2022-09-25T02:34:12.069Z,101444.56
2022-09-25T02:36:19.145Z,101432.22
2022-09-25T02:38:21.596Z,101433.91
2022-09-25T02:40:33.892Z,101432.94
2022-09-25T02:42:54.863Z,101440.94
2022-09-25T02:45:02.318Z,101432.22
2022-09-25T02:47:21.133Z,101430.47
2022-09-25T02:49:56.026Z,101428.78
2022-09-25T02:52:14.462Z,101435.03
2022-09-25T02:54:22.731Z,101429.72
2022-09-25T02:56:38.337Z,101435.94
2022-09-25T02:58:48.711Z,101436.88
2022-09-25T03:00:53.241Z,101434.22
2022-09-25T03:02:59.634Z,101432.44
2022-09-25T03:05:03.677Z,101434.22
2022-09-25T03:07:06.260Z,101433.31
2022-09-25T03:09:10.963Z,101443.88
2022-09-25T03:11:15.546Z,101436.78
2022-09-25T03:13:23.253Z,101436.75
2022-09-25T03:15:24.793Z,101435.88
2022-09-25T03:17:26.604Z,101442.06
2022-09-25T03:19:29.809Z,101432.38
2022-09-25T03:21:32.012Z,101435.03
2022-09-25T03:23:33.500Z,101432.44
2022-09-25T03:25:36.739Z,101428.94
2022-09-25T03:27:38.205Z,101430.75
2022-09-25T03:29:39.658Z,101429.00
2022-09-25T03:31:42.620Z,101437.88
2022-09-25T03:33:44.847Z,101431.78
2022-09-25T03:35:46.279Z,101436.19
2022-09-25T03:37:47.717Z,101433.56
2022-09-25T03:39:49.173Z,101436.28
2022-09-25T03:41:50.640Z,101431.03
2022-09-25T03:43:52.541Z,101431.91
2022-09-25T03:45:54.038Z,101430.25
2022-09-25T03:47:55.505Z,101427.63
2022-09-25T03:49:56.925Z,101430.31
2022-09-25T03:52:00.139Z,101421.59
2022-09-25T03:54:04.217Z,101434.88
2022-09-25T03:56:12.221Z,101434.03
2022-09-25T03:58:14.816Z,101428.84
2022-09-25T04:00:16.893Z,101428.03
2022-09-25T04:02:18.345Z,101425.41
2022-09-25T04:04:19.889Z,101419.25
2022-09-25T04:06:24.364Z,101434.25
2022-09-25T04:08:27.494Z,101421.94
2022-09-25T04:10:28.942Z,101427.25
2022-09-25T04:12:30.392Z,101417.59
2022-09-25T04:14:31.888Z,101421.19
2022-09-25T04:16:33.389Z,101416.78
2022-09-25T04:18:35.539Z,101421.22
2022-09-25T04:20:38.410Z,101423.06
2022-09-25T04:22:39.908Z,101419.56
2022-09-25T04:24:50.253Z,101418.72
2022-09-25T04:26:53.775Z,101420.53
2022-09-25T04:28:55.646Z,101422.34
2022-09-25T04:30:57.127Z,101425.94
2022-09-25T04:33:17.469Z,101426.00
2022-09-25T04:35:18.973Z,101423.47
2022-09-25T04:37:23.240Z,101433.22
2022-09-25T04:39:24.703Z,101432.38
2022-09-25T04:41:26.255Z,101434.13
2022-09-25T04:43:34.356Z,101435.81
2022-09-25T04:45:36.960Z,101435.00
2022-09-25T04:47:38.418Z,101430.56
2022-09-25T04:49:39.844Z,101428.84
2022-09-25T04:51:41.281Z,101430.56
2022-09-25T04:53:43.116Z,101422.69
2022-09-25T04:55:46.229Z,101427.09
2022-09-25T04:57:58.845Z,101433.31
2022-09-25T05:00:01.939Z,101425.47
2022-09-25T05:02:03.499Z,101432.56
2022-09-25T05:04:08.497Z,101429.09
2022-09-25T05:06:10.407Z,101428.19
2022-09-25T05:08:11.867Z,101431.72
2022-09-25T05:10:14.617Z,101429.94
2022-09-25T05:12:16.145Z,101426.41
2022-09-25T05:14:17.657Z,101421.16
2022-09-25T05:16:20.153Z,101421.13
2022-09-25T05:18:24.083Z,101420.28
2022-09-25T05:20:25.511Z,101416.81
2022-09-25T05:22:27.088Z,101414.22
2022-09-25T05:24:28.542Z,101408.94
2022-09-25T05:26:30.273Z,101413.34
2022-09-25T05:28:32.926Z,101415.16
2022-09-25T05:30:36.690Z,101413.47
2022-09-25T05:32:38.176Z,101418.81
2022-09-25T05:34:40.264Z,101411.81
2022-09-25T05:36:42.716Z,101425.03
2022-09-25T05:38:44.382Z,101426.81
2022-09-25T05:40:45.939Z,101431.28
2022-09-25T05:42:48.505Z,101427.75
2022-09-25T05:44:49.975Z,101427.81
2022-09-25T05:46:51.423Z,101430.50
2022-09-25T05:48:52.876Z,101432.25
2022-09-25T05:50:55.981Z,101430.50
2022-09-25T05:53:02.083Z,101438.44
2022-09-25T05:55:06.140Z,101433.97
2022-09-25T05:57:07.660Z,101430.38
2022-09-25T05:59:09.372Z,101431.28
2022-09-25T06:01:11.043Z,101428.69
2022-09-25T06:03:12.591Z,101431.41
2022-09-25T06:05:14.740Z,101427.09
2022-09-25T06:07:16.306Z,101426.19
2022-09-25T06:09:17.752Z,101428.88
2022-09-25T06:11:19.180Z,101429.78
2022-09-25T06:13:25.360Z,101432.44
2022-09-25T06:15:28.212Z,101428.97
2022-09-25T06:17:29.716Z,101425.41
2022-09-25T06:19:31.193Z,101429.78
2022-09-25T06:21:32.674Z,101435.09
2022-09-25T06:23:34.245Z,101431.59
2022-09-25T06:25:36.495Z,101432.44
2022-09-25T06:27:38.055Z,101433.28
2022-09-25T06:29:39.470Z,101436.72
2022-09-25T06:31:41.079Z,101435.72
2022-09-25T06:33:43.822Z,101437.47
2022-09-25T06:35:50.037Z,101439.16
2022-09-25T06:37:52.103Z,101438.28
2022-09-25T06:39:53.575Z,101443.59
2022-09-25T06:41:55.045Z,101443.69
2022-09-25T06:43:56.839Z,101435.75
2022-09-25T06:46:04.548Z,101438.44
2022-09-25T06:48:10.072Z,101435.81
2022-09-25T06:50:11.796Z,101439.28
2022-09-25T06:52:13.263Z,101439.25
2022-09-25T06:54:14.762Z,101440.97
2022-09-25T06:56:16.215Z,101439.19
2022-09-25T06:58:20.908Z,101444.41
2022-09-25T07:00:22.432Z,101442.56
2022-09-25T07:02:42.234Z,101444.28
2022-09-25T07:04:43.727Z,101439.78
2022-09-25T07:06:45.787Z,101441.47
2022-09-25T07:08:48.875Z,101443.06
2022-09-25T07:10:52.327Z,101442.06
2022-09-25T07:12:53.813Z,101447.13
2022-09-25T07:14:56.021Z,101441.72
2022-09-25T07:16:57.473Z,101440.72
2022-09-25T07:19:03.447Z,101441.44
2022-09-25T07:21:07.078Z,101444.81
2022-09-25T07:23:08.597Z,101446.34
2022-09-25T07:25:11.033Z,101437.34
2022-09-25T07:27:12.553Z,101445.13
2022-09-25T07:29:14.120Z,101452.97
2022-09-25T07:31:21.938Z,101456.28
2022-09-25T07:33:25.036Z,101451.69
2022-09-25T07:35:27.232Z,101448.88
2022-09-25T07:37:28.801Z,101455.88
2022-09-25T07:39:30.406Z,101452.19
2022-09-25T07:41:32.589Z,101451.22
2022-09-25T07:43:34.772Z,101449.34
2022-09-25T07:45:36.774Z,101448.34
2022-09-25T07:47:38.205Z,101451.69
2022-09-25T07:49:40.166Z,101447.09
2022-09-25T07:51:41.640Z,101448.78
2022-09-25T07:53:44.087Z,101445.97
2022-09-25T07:55:46.781Z,101438.66
2022-09-25T07:57:49.405Z,101444.78
2022-09-25T07:59:50.913Z,101439.25
2022-09-25T08:01:54.078Z,101439.84
2022-09-25T08:03:55.843Z,101437.97
2022-09-25T08:06:02.921Z,101441.41
2022-09-25T08:08:04.407Z,101445.06
2022-09-25T08:10:06.606Z,101442.97
2022-09-25T08:12:11.565Z,101446.06
2022-09-25T08:14:14.421Z,101442.25
2022-09-25T08:16:18.125Z,101440.31
2022-09-25T08:18:19.614Z,101438.56
2022-09-25T08:20:21.292Z,101449.47
2022-09-25T08:22:22.999Z,101450.16
2022-09-25T08:24:24.443Z,101447.25
2022-09-25T08:26:28.159Z,101450.63
2022-09-25T08:28:29.939Z,101448.84
2022-09-25T08:30:32.946Z,101444.66
2022-09-25T08:32:34.632Z,101448.84
2022-09-25T08:34:40.982Z,101449.31
2022-09-25T08:36:42.850Z,101451.88
2022-09-25T08:38:44.372Z,101444.22
2022-09-25T08:40:59.603Z,101443.91
2022-09-25T08:43:01.221Z,101445.28
2022-09-25T08:45:36.502Z,101444.31
2022-09-25T08:47:57.165Z,101445.91
2022-09-25T08:50:01.743Z,101455.25
2022-09-25T08:52:08.418Z,101449.78
2022-09-25T08:54:20.900Z,101453.44
2022-09-25T08:56:24.655Z,101448.16
2022-09-25T08:58:29.800Z,101446.47
2022-09-25T09:00:31.782Z,101455.19
2022-09-25T09:02:46.992Z,101449.84
2022-09-25T09:04:51.276Z,101454.38
2022-09-25T09:07:25.142Z,101448.16
2022-09-25T09:09:29.846Z,101457.75
2022-09-25T09:11:37.804Z,101451.63
2022-09-25T09:14:00.207Z,101449.72
2022-09-25T09:16:02.101Z,101454.16
2022-09-25T09:18:25.182Z,101459.59
2022-09-25T09:20:55.512Z,101448.19
2022-09-25T09:22:59.924Z,101453.50
2022-09-25T09:25:17.626Z,101459.59
2022-09-25T09:27:36.091Z,101450.53
2022-09-25T09:30:04.517Z,101452.13
2022-09-25T09:32:28.805Z,101444.72
2022-09-25T09:35:07.603Z,101453.72
2022-09-25T09:37:25.069Z,101448.25
2022-09-25T09:39:36.286Z,101455.41
2022-09-25T09:41:49.497Z,101456.16
2022-09-25T09:44:13.235Z,101451.81
2022-09-25T09:46:49.121Z,101434.72
2022-09-25T09:49:13.644Z,101440.91
2022-09-25T09:51:23.258Z,101440.72
2022-09-25T09:53:37.134Z,101446.63
2022-09-25T09:55:48.017Z,101450.34
2022-09-25T09:57:53.301Z,101448.44
2022-09-25T10:00:05.326Z,101435.84
2022-09-25T10:02:37.630Z,101441.28
2022-09-25T10:04:41.278Z,101440.47
2022-09-25T10:06:50.070Z,101449.09
2022-09-25T10:08:51.659Z,101442.91
2022-09-25T10:10:54.881Z,101442.91
2022-09-25T10:13:06.516Z,101440.34
2022-09-25T10:15:18.812Z,101437.94
2022-09-25T10:17:23.509Z,101436.91
2022-09-25T10:19:28.135Z,101433.97
2022-09-25T10:22:03.319Z,101439.06
2022-09-25T10:24:05.070Z,101429.66
2022-09-25T10:26:26.965Z,101437.56
2022-09-25T10:28:35.921Z,101439.06
2022-09-25T10:30:46.488Z,101441.78
2022-09-25T10:33:13.455Z,101440.38
2022-09-25T10:35:20.435Z,101445.75
2022-09-25T10:37:22.563Z,101434.25
2022-09-25T10:39:45.311Z,101435.94
2022-09-25T10:41:47.310Z,101435.81
2022-09-25T10:44:02.200Z,101439.75
2022-09-25T10:46:15.104Z,101431.31
2022-09-25T10:48:55.925Z,101441.41
2022-09-25T10:51:08.840Z,101438.44
2022-09-25T10:53:36.550Z,101438.09
2022-09-25T10:55:43.897Z,101435.13
2022-09-25T10:57:47.798Z,101435.03
2022-09-25T10:59:51.290Z,101434.13
2022-09-25T11:01:54.833Z,101431.47
2022-09-25T11:03:58.291Z,101435.19
2022-09-25T11:06:18.529Z,101436.97
2022-09-25T11:08:23.718Z,101433.31
2022-09-25T11:10:35.524Z,101434.31
2022-09-25T11:12:39.511Z,101439.69
2022-09-25T11:14:51.346Z,101434.56
2022-09-25T11:16:55.344Z,101439.75
2022-09-25T11:19:11.301Z,101442.53
2022-09-25T11:21:37.934Z,101448.28
2022-09-25T11:23:57.236Z,101446.50
2022-09-25T11:26:12.769Z,101447.66
2022-09-25T11:28:23.903Z,101448.75
2022-09-25T11:30:32.373Z,101445.34
2022-09-25T11:32:52.460Z,101443.66
2022-09-25T11:35:06.577Z,101450.84
2022-09-25T11:37:29.758Z,101450.00
2022-09-25T11:40:19.048Z,101456.31
2022-09-25T11:42:40.951Z,101444.16
2022-09-25T11:44:54.156Z,101446.06
2022-09-25T11:47:53.534Z,101442.72
2022-09-25T11:49:58.511Z,101440.97
2022-09-25T11:52:42.586Z,101436.59
2022-09-25T11:55:11.797Z,101444.50
2022-09-25T11:57:34.203Z,101435.47
2022-09-25T11:59:51.156Z,101430.91
2022-09-25T12:02:09.437Z,101427.41
2022-09-25T12:04:36.998Z,101424.72
2022-09-25T12:06:42.701Z,101425.72
2022-09-25T12:08:50.513Z,101424.09
2022-09-25T12:11:04.863Z,101417.22
2022-09-25T12:13:27.972Z,101419.00
2022-09-25T12:15:50.892Z,101413.63
2022-09-25T12:18:34.010Z,101412.59
2022-09-25T12:20:57.689Z,101413.41
2022-09-25T12:23:17.997Z,101405.19
2022-09-25T12:25:34.711Z,101398.94
2022-09-25T12:27:55.940Z,101395.44
2022-09-25T12:30:11.906Z,101397.28
2022-09-25T12:32:29.844Z,101395.47
2022-09-25T12:35:01.061Z,101383.91
2022-09-25T12:37:27.481Z,101383.91
2022-09-25T12:39:33.945Z,101376.00
2022-09-25T12:41:47.171Z,101383.81
2022-09-25T12:43:54.655Z,101372.19
2022-09-25T12:46:08.214Z,101371.00
2022-09-25T12:48:18.624Z,101366.22
2022-09-25T12:50:28.792Z,101368.84
2022-09-25T12:52:45.418Z,101366.13
2022-09-25T12:55:09.442Z,101375.69
2022-09-25T12:57:38.635Z,101363.38
2022-09-25T12:59:46.865Z,101370.44
2022-09-25T13:02:09.121Z,101363.56
2022-09-25T13:04:35.199Z,101367.28
2022-09-25T13:06:45.596Z,101360.56
2022-09-25T13:08:58.511Z,101362.53
2022-09-25T13:11:27.945Z,101366.06
2022-09-25T13:13:32.552Z,101366.00
2022-09-25T13:15:37.276Z,101368.78
2022-09-25T13:17:40.021Z,101359.19
2022-09-25T13:19:41.785Z,101366.47
2022-09-25T13:21:43.424Z,101364.97
2022-09-25T13:23:50.233Z,101360.69
2022-09-25T13:26:00.931Z,101357.97
2022-09-25T13:28:08.021Z,101345.31
2022-09-25T13:30:28.444Z,101345.66
2022-09-25T13:32:35.709Z,101347.72
2022-09-25T13:34:39.715Z,101347.25
2022-09-25T13:36:44.199Z,101338.75
2022-09-25T13:39:04.887Z,101336.72
2022-09-25T13:41:12.770Z,101341.72
2022-09-25T13:43:26.823Z,101348.66
2022-09-25T13:45:34.261Z,101343.25
2022-09-25T13:47:36.565Z,101346.91
2022-09-25T13:49:50.489Z,101342.72
2022-09-25T13:51:51.907Z,101340.31
2022-09-25T13:54:03.158Z,101345.00
2022-09-25T13:56:12.378Z,101346.94
2022-09-25T13:58:18.746Z,101338.94
2022-09-25T14:00:20.262Z,101336.41
2022-09-25T14:02:42.022Z,101333.88
2022-09-25T14:04:48.603Z,101332.88
2022-09-25T14:06:58.093Z,101330.34
2022-09-25T14:09:09.305Z,101339.38
2022-09-25T14:11:16.602Z,101333.31
2022-09-25T14:13:23.646Z,101330.84
2022-09-25T14:15:38.218Z,101331.78
2022-09-25T14:17:42.933Z,101330.03
2022-09-25T14:19:49.007Z,101322.94
2022-09-25T14:21:51.182Z,101320.34
2022-09-25T14:23:58.219Z,101323.19
2022-09-25T14:26:02.507Z,101316.50
2022-09-25T14:28:20.312Z,101318.59
2022-09-25T14:30:21.915Z,101317.16
2022-09-25T14:32:55.049Z,101313.66
2022-09-25T14:35:06.384Z,101310.00
2022-09-25T14:37:39.555Z,101306.34
2022-09-25T14:39:54.094Z,101305.44
2022-09-25T14:42:13.137Z,101305.31
2022-09-25T14:44:34.389Z,101296.41
2022-09-25T14:46:36.015Z,101298.88
2022-09-25T14:48:39.328Z,101296.97
2022-09-25T14:50:52.311Z,101286.97
2022-09-25T14:52:58.094Z,101278.69
2022-09-25T14:55:00.666Z,101286.44
2022-09-25T14:57:05.435Z,101280.19
2022-09-25T14:59:19.694Z,101276.59
2022-09-25T15:01:29.645Z,101283.56
2022-09-25T15:03:33.548Z,101285.25
2022-09-25T15:05:35.912Z,101279.00
2022-09-25T15:07:42.817Z,101283.38
2022-09-25T15:09:49.921Z,101271.94
2022-09-25T15:11:54.642Z,101278.94
2022-09-25T15:14:10.617Z,101273.50
2022-09-25T15:16:40.519Z,101274.47
2022-09-25T15:18:44.287Z,101271.81
2022-09-25T15:20:48.503Z,101271.56
2022-09-25T15:22:58.582Z,101271.44
2022-09-25T15:25:03.986Z,101275.97
2022-09-25T15:27:07.439Z,101268.09
2022-09-25T15:29:20.971Z,101272.50
2022-09-25T15:31:23.015Z,101275.28
2022-09-25T15:33:29.273Z,101270.94
2022-09-25T15:35:30.822Z,101269.97
2022-09-25T15:37:32.521Z,101268.09
2022-09-25T15:39:41.166Z,101269.63
2022-09-25T15:41:43.328Z,101263.72
2022-09-25T15:43:44.865Z,101267.31
2022-09-25T15:45:52.527Z,101262.22
2022-09-25T15:47:54.470Z,101265.28
2022-09-25T15:49:55.967Z,101264.69
2022-09-25T15:52:01.335Z,101259.69
2022-09-25T15:54:17.229Z,101261.84
2022-09-25T15:56:26.110Z,101263.03
2022-09-25T15:58:27.634Z,101268.63
2022-09-25T16:00:47.617Z,101262.63
2022-09-25T16:03:18.264Z,101259.31
2022-09-25T16:05:27.849Z,101254.19
2022-09-25T16:07:30.725Z,101252.50
2022-09-25T16:09:34.133Z,101261.41
2022-09-25T16:11:36.093Z,101262.44
2022-09-25T16:13:40.996Z,101260.78
2022-09-25T16:15:46.819Z,101255.53
2022-09-25T16:17:48.319Z,101261.88
2022-09-25T16:20:24.623Z,101260.19
2022-09-25T16:22:26.925Z,101260.47
2022-09-25T16:24:29.949Z,101260.56
2022-09-25T16:26:44.317Z,101263.41
2022-09-25T16:28:52.520Z,101269.69
2022-09-25T16:31:04.122Z,101268.16
2022-09-25T16:33:22.213Z,101269.19
2022-09-25T16:36:08.918Z,101264.06
2022-09-25T16:38:02.539Z,101262.38
2022-09-25T16:40:29.151Z,101265.94
2022-09-25T16:42:40.228Z,101266.81
2022-09-25T16:44:46.951Z,101260.59
2022-09-25T16:46:52.201Z,101268.59
2022-09-25T16:49:01.924Z,101265.16
2022-09-25T16:51:06.285Z,101263.41
2022-09-25T16:53:08.761Z,101266.13
2022-09-25T16:55:23.302Z,101266.22
2022-09-25T16:57:27.847Z,101269.06
2022-09-25T16:59:30.345Z,101262.00
2022-09-25T17:01:31.972Z,101264.72
2022-09-25T17:03:49.753Z,101267.44
2022-09-25T17:05:51.318Z,101265.81
2022-09-25T17:07:59.965Z,101262.22
2022-09-25T17:10:02.258Z,101262.53
2022-09-25T17:12:11.212Z,101267.69
2022-09-25T17:14:24.472Z,101263.38
2022-09-25T17:16:25.955Z,101250.22
2022-09-25T17:18:27.632Z,101262.56
2022-09-25T17:20:35.110Z,101255.59
2022-09-25T17:22:36.663Z,101245.09
2022-09-25T17:24:38.162Z,101253.03
2022-09-25T17:26:40.274Z,101253.97
2022-09-25T17:28:41.778Z,101252.22
2022-09-25T17:30:44.585Z,101254.94
2022-09-25T17:32:46.150Z,101252.34
2022-09-25T17:34:47.804Z,101251.47
2022-09-25T17:36:49.231Z,101240.97
2022-09-25T17:38:50.726Z,101239.41
2022-09-25T17:40:53.606Z,101240.41
2022-09-25T17:42:55.156Z,101244.00
2022-09-25T17:44:57.484Z,101245.84
2022-09-25T17:46:59.542Z,101247.78
2022-09-25T17:49:01.063Z,101247.00
2022-09-25T17:51:12.419Z,101240.03
2022-09-25T17:53:18.087Z,101241.00
2022-09-25T17:55:20.816Z,101238.56
2022-09-25T17:57:22.304Z,101238.72
2022-09-25T17:59:23.725Z,101242.34
2022-09-25T18:01:27.452Z,101243.25
2022-09-25T18:03:30.889Z,101234.59
2022-09-25T18:05:32.498Z,101236.50
2022-09-25T18:07:34.063Z,101234.91
2022-09-25T18:09:35.606Z,101235.16
2022-09-25T18:11:37.063Z,101233.53
2022-09-25T18:13:41.857Z,101236.44
2022-09-25T18:15:57.891Z,101234.84
2022-09-25T18:17:59.407Z,101236.69
2022-09-25T18:20:19.646Z,101225.31
2022-09-25T18:22:25.202Z,101225.50
2022-09-25T18:24:26.840Z,101221.25
2022-09-25T18:26:31.455Z,101229.31
2022-09-25T18:28:33.242Z,101228.59
2022-09-25T18:30:35.241Z,101224.25
2022-09-25T18:32:36.702Z,101219.09
2022-09-25T18:34:38.161Z,101224.53
2022-09-25T18:36:39.780Z,101222.03
2022-09-25T18:38:41.833Z,101217.75
2022-09-25T18:40:43.392Z,101219.59
2022-09-25T18:42:46.244Z,101217.91
2022-09-25T18:44:47.788Z,101223.34
2022-09-25T18:46:51.102Z,101209.34
2022-09-25T18:48:53.602Z,101208.56
2022-09-25T18:50:55.223Z,101209.50
2022-09-25T18:52:56.661Z,101207.84
2022-09-25T18:55:00.355Z,101200.91
2022-09-25T18:57:01.852Z,101194.00
2022-09-25T18:59:05.679Z,101196.78
2022-09-25T19:01:07.454Z,101193.41
2022-09-25T19:03:09.131Z,101193.53
2022-09-25T19:05:11.323Z,101187.50
2022-09-25T19:07:12.807Z,101185.00
2022-09-25T19:09:16.916Z,101186.81
2022-09-25T19:11:19.039Z,101179.88
2022-09-25T19:13:20.665Z,101178.16
2022-09-25T19:15:22.131Z,101177.38
2022-09-25T19:17:23.598Z,101174.81
2022-09-25T19:19:25.028Z,101175.75
2022-09-25T19:21:27.381Z,101170.56
2022-09-25T19:23:28.944Z,101160.06
2022-09-25T19:25:30.388Z,101160.19
2022-09-25T19:27:31.891Z,101160.31
2022-09-25T19:29:36.538Z,101162.22
2022-09-25T19:31:38.079Z,101157.88
2022-09-25T19:33:40.118Z,101161.47
2022-09-25T19:35:41.570Z,101161.56
2022-09-25T19:37:43.038Z,101154.56
2022-09-25T19:40:03.664Z,101161.69
2022-09-25T19:42:05.278Z,101161.75
2022-09-25T19:44:13.371Z,101153.00
2022-09-25T19:46:19.922Z,101155.81
2022-09-25T19:48:23.193Z,101157.66
2022-09-25T19:50:24.880Z,101157.69
2022-09-25T19:52:26.456Z,101149.03
2022-09-25T19:54:28.161Z,101148.22
2022-09-25T19:56:29.742Z,101149.19
2022-09-25T19:58:36.124Z,101145.78
2022-09-25T20:00:42.202Z,101147.59
2022-09-25T20:02:47.622Z,101140.66
2022-09-25T20:04:49.213Z,101139.88
2022-09-25T20:06:50.795Z,101135.56
2022-09-25T20:09:00.891Z,101126.84
2022-09-25T20:11:12.269Z,101126.09
2022-09-25T20:13:13.715Z,101128.78
2022-09-25T20:15:15.231Z,101132.31
2022-09-25T20:17:16.718Z,101134.09
2022-09-25T20:19:19.268Z,101134.13
2022-09-25T20:21:21.947Z,101140.34
2022-09-25T20:23:23.380Z,101134.19
2022-09-25T20:25:27.980Z,101141.28
2022-09-25T20:27:29.490Z,101131.72
2022-09-25T20:29:30.983Z,101128.25
2022-09-25T20:31:32.822Z,101123.94
2022-09-25T20:33:38.060Z,101120.50
2022-09-25T20:35:39.553Z,101116.19
2022-09-25T20:37:44.434Z,101118.91
2022-09-25T20:39:45.915Z,101117.28
2022-09-25T20:41:48.105Z,101113.84
2022-09-25T20:43:51.813Z,101113.00
2022-09-25T20:46:05.587Z,101113.94
2022-09-25T20:48:07.063Z,101114.84
2022-09-25T20:50:09.368Z,101113.94
2022-09-25T20:52:12.376Z,101107.81
2022-09-25T20:54:14.186Z,101113.13
2022-09-25T20:56:16.006Z,101112.25
2022-09-25T20:58:18.650Z,101106.09
2022-09-25T21:00:20.123Z,101106.13
2022-09-25T21:02:21.686Z,101113.19
2022-09-25T21:04:23.350Z,101108.84
2022-09-25T21:06:27.668Z,101107.16
2022-09-25T21:08:31.117Z,101106.28
2022-09-25T21:10:36.993Z,101101.94
2022-09-25T21:12:38.470Z,101110.75
2022-09-25T21:14:39.914Z,101103.75
2022-09-25T21:16:41.420Z,101102.88
2022-09-25T21:18:43.285Z,101099.44
2022-09-25T21:20:44.743Z,101098.59
2022-09-25T21:22:47.568Z,101088.97
2022-09-25T21:24:50.021Z,101088.16
2022-09-25T21:26:51.597Z,101084.69
2022-09-25T21:28:55.646Z,101081.22
2022-09-25T21:31:05.757Z,101081.28
2022-09-25T21:33:07.633Z,101069.91
2022-09-25T21:35:09.954Z,101083.13
2022-09-25T21:37:11.365Z,101084.03
2022-09-25T21:39:13.347Z,101080.59
2022-09-25T21:41:18.609Z,101071.00
2022-09-25T21:43:20.702Z,101067.53
2022-09-25T21:45:22.266Z,101064.09
2022-09-25T21:47:23.745Z,101071.13
2022-09-25T21:49:25.172Z,101058.00
2022-09-25T21:51:33.374Z,101060.72
2022-09-25T21:53:35.642Z,101065.19
2022-09-25T21:55:37.114Z,101062.56
2022-09-25T21:57:38.631Z,101060.78
2022-09-25T21:59:41.297Z,101052.03
2022-09-25T22:01:42.950Z,101058.25
2022-09-25T22:03:49.842Z,101050.38
2022-09-25T22:05:58.451Z,101058.34
2022-09-25T22:07:59.873Z,101053.09
2022-09-25T22:10:01.393Z,101046.91
2022-09-25T22:12:02.923Z,101046.03
2022-09-25T22:14:05.811Z,101044.31
2022-09-25T22:16:29.357Z,101042.69
2022-09-25T22:18:33.351Z,101040.03
2022-09-25T22:20:38.200Z,101042.69
2022-09-25T22:22:39.616Z,101033.03
2022-09-25T22:24:41.072Z,101033.09
2022-09-25T22:26:44.494Z,101034.84
2022-09-25T22:28:46.580Z,101021.66
2022-09-25T22:30:48.146Z,101021.66
2022-09-25T22:32:49.581Z,101024.28
2022-09-25T22:34:51.000Z,101019.91
2022-09-25T22:36:58.964Z,101017.28
2022-09-25T22:39:01.369Z,101016.41
2022-09-25T22:41:08.781Z,101017.28
2022-09-25T22:43:10.181Z,101017.28
2022-09-25T22:45:11.862Z,101011.16
2022-09-25T22:47:13.279Z,101012.03
2022-09-25T22:49:14.750Z,101012.88
2022-09-25T22:51:18.894Z,101008.47
2022-09-25T22:53:21.709Z,101009.31
2022-09-25T22:55:26.064Z,100994.41
2022-09-25T22:57:28.347Z,100992.69
2022-09-25T22:59:29.846Z,100996.16
2022-09-25T23:01:41.804Z,100994.38
2022-09-25T23:03:43.334Z,100985.53
2022-09-25T23:05:45.354Z,100988.16
2022-09-25T23:07:48.642Z,100976.72
2022-09-25T23:09:50.087Z,100973.22
2022-09-25T23:11:52.903Z,100971.47
2022-09-25T23:14:02.973Z,100974.06
2022-09-25T23:16:07.374Z,100975.75
2022-09-25T23:18:08.812Z,100973.06
2022-09-25T23:20:10.257Z,100972.16
2022-09-25T23:22:11.775Z,100963.31
2022-09-25T23:24:16.801Z,100965.06
2022-09-25T23:26:18.303Z,100958.03
2022-09-25T23:28:19.795Z,100959.78
2022-09-25T23:30:21.443Z,100963.22
2022-09-25T23:32:22.934Z,100949.16
2022-09-25T23:34:24.381Z,100947.44
2022-09-25T23:36:27.220Z,100940.41
2022-09-25T23:38:30.051Z,100938.59
2022-09-25T23:40:31.691Z,100932.44
2022-09-25T23:42:33.182Z,100929.78
2022-09-25T23:44:35.347Z,100923.63
2022-09-25T23:46:39.857Z,100913.09
2022-09-25T23:48:42.369Z,100909.59
2022-09-25T23:50:44.024Z,100909.56
2022-09-25T23:52:45.465Z,100906.91
2022-09-25T23:54:47.279Z,100898.97
2022-09-25T23:56:48.770Z,100891.06
2022-09-25T23:58:50.958Z,100889.31
